Buffalo, WY

12:08 PM MDT on May 28, 2015 (GMT -0600)
Esponda Ranch | | Change Station
CLOSE
Current Station
Personal Weather Station
Location: Buffalo, WY
Elevation: 4665 ft
Nearby Weather Stations
Active Advisory: Special Statement

Elev 4665 ft 44.32 °N, 106.67 °W | Updated 11 minutes ago

Overcast
Overcast
55.9 °F
Feels Like 55.9 °F
N
7.0
Wind Variable Wind from NNW
Gusts 10.0 mph

Today
High -- | Low -- °F
--% Chance of Precip.
Yesterday
High -- | Low -- °F
Precip. -- in
5:28 AM 8:40 PM
Waxing Gibbous, 77% visible
Pressure 29.99 in
Visibility 10.0 miles
Clouds Overcast 5500 ft
Dew Point 51 °F
Humidity 85%
Rainfall 0.00 in
Snow Depth Not available.
UV 3 out of 12
Pollen 5.40 out of 12
Air Quality Not available.
Flu Activity Sporadic
METAR KBYG 281753Z AUTO 28010KT 10SM OVC055 13/08 A3007 RMK AO2 LTG DSNT S SLP155 60000 T01280083 10133 20106 53006 $

More Conditions Fewer Conditions

Pressure 29.99 in
Visibility 10.0 miles
Clouds Overcast 5500 ft
Dew Point 51 °F
Humidity 85%
Rainfall 0.00 in
Snow Depth Not available.
UV 3 out of 12
Pollen 5.40 out of 12
Air Quality Not available.
Flu Activity Sporadic
METAR KBYG 281753Z AUTO 28010KT 10SM OVC055 13/08 A3007 RMK AO2 LTG DSNT S SLP155 60000 T01280083 10133 20106 53006 $

More Conditions Fewer Conditions

10-Day Weather Forecast

Almanac

Astronomy

May. 28, 2015 Rise Set
Actual Time
Civil Twilight
Nautical Twilight
Astronomical Twilight
Moon
Length of Visible Light
Length of Day
Tomorrow will be .
, % of the Moon is Illuminated

Today's Extremes

State Highs State Lows

Community

WunderPhotos

Upload Photos

1,825,007 photos uploaded!

WunderBlogs® & News

Nearby

Air Quality

  Air Quality AQ Index Pollutant
Not available.

Snow Depth

Station Depth Elevation

Earthquake Activity

City Distance Mag. Time & Date
Minimum magnitude displayed is 2.5.

Coastal Water Temperatures

Place Temperature

Stations

Nearby Weather Stations

Station Location Temp. Windchill Dew Point Humidity Wind Precip. Elev Updated Type
                   
Special Statement
Statement as of 8:11 AM MDT on May 28, 2015

... Cold air funnels possible today...

The environment will become favorable for cold air funnel
clouds today... as an upper level low pressure system moves through.
Cold air funnels rarely reach the ground... however... touch down is
remotely possible. This situation could cause winds similar to a
weak tornado. If witnessed... use the same precautions you would
for any funnel cloud or tornado. Take shelter in a sturdy building...
away from windows.


Anglin